createdAt,value
2022-09-24T00:02:07.032Z,99529.47
2022-09-24T00:04:35.891Z,99527.81
2022-09-24T00:07:04.090Z,99514.28
2022-09-24T00:09:32.223Z,99511.28
2022-09-24T00:12:00.643Z,99513.06
2022-09-24T00:14:30.117Z,99514.94
2022-09-24T00:16:58.240Z,99523.38
2022-09-24T00:19:26.303Z,99514.41
2022-09-24T00:21:54.400Z,99507.59
2022-09-24T00:24:39.812Z,99509.25
2022-09-24T00:27:08.254Z,99508.53
2022-09-24T00:29:38.384Z,99506.84
2022-09-24T00:32:07.409Z,99505.16
2022-09-24T00:34:35.615Z,99506.94
2022-09-24T00:37:03.703Z,99505.06
2022-09-24T00:39:31.745Z,99500.47
2022-09-24T00:41:59.953Z,99508.03
2022-09-24T00:44:57.340Z,99502.81
2022-09-24T00:47:36.944Z,99492.84
2022-09-24T00:50:26.527Z,99488.34
2022-09-24T00:52:58.145Z,99484.00
2022-09-24T00:55:26.708Z,99489.91
2022-09-24T00:57:57.706Z,99487.78
2022-09-24T01:00:27.820Z,99478.09
2022-09-24T01:03:00.020Z,99485.88
2022-09-24T01:05:28.300Z,99479.69
2022-09-24T01:07:56.500Z,99476.50
2022-09-24T01:10:51.204Z,99483.22
2022-09-24T01:13:48.447Z,99481.00
2022-09-24T01:16:26.075Z,99477.06
2022-09-24T01:19:05.807Z,99480.78
2022-09-24T01:21:38.785Z,99480.06
2022-09-24T01:24:29.138Z,99472.03
2022-09-24T01:27:04.199Z,99475.06
2022-09-24T01:29:56.293Z,99474.41
2022-09-24T01:32:32.482Z,99470.16
2022-09-24T01:35:04.161Z,99462.81
2022-09-24T01:37:34.780Z,99463.47
2022-09-24T01:40:06.322Z,99469.22
2022-09-24T01:42:35.064Z,99451.69
2022-09-24T01:45:05.019Z,99454.25
2022-09-24T01:47:39.828Z,99459.72
2022-09-24T01:50:09.632Z,99461.66
2022-09-24T01:52:43.666Z,99457.84
2022-09-24T01:55:14.809Z,99455.09
2022-09-24T01:57:45.814Z,99454.81
2022-09-24T02:00:16.907Z,99449.69
2022-09-24T02:02:47.457Z,99448.91
2022-09-24T02:05:18.763Z,99446.88
2022-09-24T02:07:50.876Z,99446.81
2022-09-24T02:10:21.466Z,99440.91
2022-09-24T02:12:53.744Z,99443.47
2022-09-24T02:15:31.386Z,99447.53
2022-09-24T02:18:05.421Z,99442.34
2022-09-24T02:20:35.995Z,99440.81
2022-09-24T02:23:05.400Z,99438.53
2022-09-24T02:25:37.229Z,99434.63
2022-09-24T02:28:05.351Z,99438.97
2022-09-24T02:30:39.306Z,99432.38
2022-09-24T02:33:28.379Z,99443.03
2022-09-24T02:35:55.502Z,99444.88
2022-09-24T02:38:24.098Z,99429.00
2022-09-24T02:40:53.195Z,99436.19
2022-09-24T02:43:21.247Z,99436.59
2022-09-24T02:45:50.964Z,99428.00
2022-09-24T02:48:19.707Z,99430.28
2022-09-24T02:50:47.773Z,99429.91
2022-09-24T02:53:15.814Z,99422.88
2022-09-24T02:55:43.839Z,99434.09
2022-09-24T02:58:12.295Z,99429.56
2022-09-24T03:00:40.322Z,99425.03
2022-09-24T03:03:09.747Z,99428.69
2022-09-24T03:05:37.879Z,99427.97
2022-09-24T03:08:07.650Z,99424.06
2022-09-24T03:10:36.052Z,99420.69
2022-09-24T03:13:04.042Z,99423.59
2022-09-24T03:15:32.094Z,99423.44
2022-09-24T03:18:00.205Z,99426.88
2022-09-24T03:20:29.819Z,99425.97
2022-09-24T03:22:57.869Z,99424.28
2022-09-24T03:25:26.931Z,99423.63
2022-09-24T03:27:55.037Z,99425.91
2022-09-24T03:30:40.535Z,99416.22
2022-09-24T03:33:08.606Z,99422.25
2022-09-24T03:35:37.959Z,99409.31
2022-09-24T03:38:06.028Z,99409.22
2022-09-24T03:40:34.079Z,99408.06
2022-09-24T03:43:02.149Z,99419.00
2022-09-24T03:45:32.063Z,99413.22
2022-09-24T03:48:00.098Z,99415.91
2022-09-24T03:50:28.223Z,99424.19
2022-09-24T03:52:57.585Z,99414.25
2022-09-24T03:55:25.607Z,99400.16
2022-09-24T03:57:53.693Z,99411.78
2022-09-24T04:00:22.087Z,99409.44
2022-09-24T04:02:50.250Z,99414.22
2022-09-24T04:05:18.907Z,99420.53
2022-09-24T04:07:47.041Z,99420.25
2022-09-24T04:10:16.633Z,99425.16
2022-09-24T04:12:45.737Z,99413.44
2022-09-24T04:15:16.616Z,99407.69
2022-09-24T04:17:50.915Z,99414.25
2022-09-24T04:20:22.805Z,99408.38
2022-09-24T04:22:51.496Z,99405.25
2022-09-24T04:25:21.726Z,99403.84
2022-09-24T04:27:54.810Z,99411.59
2022-09-24T04:30:23.526Z,99398.78
2022-09-24T04:32:51.998Z,99395.47
2022-09-24T04:35:20.432Z,99407.06
2022-09-24T04:37:49.168Z,99407.50
2022-09-24T04:40:17.647Z,99408.78
2022-09-24T04:42:47.372Z,99407.16
2022-09-24T04:45:20.260Z,99408.34
2022-09-24T04:47:56.187Z,99402.78
2022-09-24T04:50:24.956Z,99394.63
2022-09-24T04:52:54.442Z,99383.41
2022-09-24T04:55:22.836Z,99392.53
2022-09-24T04:57:52.591Z,99397.03
2022-09-24T05:00:22.120Z,99405.25
2022-09-24T05:02:57.292Z,99407.78
2022-09-24T05:05:25.489Z,99403.44
2022-09-24T05:07:53.700Z,99407.22
2022-09-24T05:10:21.802Z,99412.56
2022-09-24T05:12:49.915Z,99408.88
2022-09-24T05:15:20.273Z,99401.38
2022-09-24T05:17:49.196Z,99406.00
2022-09-24T05:20:17.916Z,99408.94
2022-09-24T05:22:46.740Z,99412.06
2022-09-24T05:25:15.984Z,99415.38
2022-09-24T05:27:46.291Z,99414.50
2022-09-24T05:30:15.163Z,99413.22
2022-09-24T05:32:44.689Z,99409.91
2022-09-24T05:35:13.836Z,99414.94
2022-09-24T05:37:42.661Z,99405.22
2022-09-24T05:40:29.102Z,99406.16
2022-09-24T05:43:01.546Z,99410.94
2022-09-24T05:45:29.747Z,99409.47
2022-09-24T05:48:00.180Z,99417.44
2022-09-24T05:50:28.601Z,99415.31
2022-09-24T05:52:57.205Z,99420.06
2022-09-24T05:55:30.043Z,99426.75
2022-09-24T05:58:04.361Z,99440.44
2022-09-24T06:00:32.638Z,99433.75
2022-09-24T06:03:08.060Z,99432.31
2022-09-24T06:05:36.638Z,99442.66
2022-09-24T06:08:05.016Z,99440.88
2022-09-24T06:10:33.460Z,99439.81
2022-09-24T06:13:01.691Z,99435.25
2022-09-24T06:15:29.718Z,99440.97
2022-09-24T06:17:57.821Z,99439.53
2022-09-24T06:20:27.603Z,99437.78
2022-09-24T06:22:57.558Z,99445.34
2022-09-24T06:25:26.084Z,99447.59
2022-09-24T06:28:01.841Z,99444.25
2022-09-24T06:30:31.501Z,99439.84
2022-09-24T06:33:03.270Z,99432.25
2022-09-24T06:35:33.170Z,99431.09
2022-09-24T06:38:01.429Z,99426.25
2022-09-24T06:40:35.555Z,99419.94
2022-09-24T06:43:05.255Z,99416.81
2022-09-24T06:45:33.473Z,99407.34
2022-09-24T06:48:03.082Z,99401.84
2022-09-24T06:50:34.464Z,99400.25
2022-09-24T06:53:06.459Z,99399.56
2022-09-24T06:55:35.024Z,99401.06
2022-09-24T06:58:04.616Z,99404.44
2022-09-24T07:00:33.230Z,99411.25
2022-09-24T07:03:01.454Z,99409.94
2022-09-24T07:05:29.523Z,99412.06
2022-09-24T07:07:59.024Z,99413.06
2022-09-24T07:10:27.518Z,99412.59
2022-09-24T07:12:55.788Z,99409.38
2022-09-24T07:15:23.859Z,99414.06
2022-09-24T07:17:56.279Z,99413.28
2022-09-24T07:20:24.893Z,99418.94
2022-09-24T07:22:53.024Z,99414.94
2022-09-24T07:25:22.555Z,99425.28
2022-09-24T07:27:50.723Z,99421.47
2022-09-24T07:30:19.232Z,99410.53
2022-09-24T07:32:48.390Z,99421.94
2022-09-24T07:35:16.663Z,99421.81
2022-09-24T07:37:44.724Z,99416.47
2022-09-24T07:40:12.876Z,99414.50
2022-09-24T07:42:49.693Z,99416.53
2022-09-24T07:45:18.566Z,99417.84
2022-09-24T07:47:46.951Z,99414.56
2022-09-24T07:50:15.330Z,99425.63
2022-09-24T07:52:43.658Z,99420.78
2022-09-24T07:55:11.964Z,99421.44
2022-09-24T07:57:40.597Z,99419.19
2022-09-24T08:00:13.083Z,99415.63
2022-09-24T08:02:41.671Z,99412.59
2022-09-24T08:05:10.984Z,99409.13
2022-09-24T08:07:39.052Z,99399.38
2022-09-24T08:10:07.888Z,99403.47
2022-09-24T08:12:36.065Z,99412.25
2022-09-24T08:15:04.665Z,99410.22
2022-09-24T08:17:34.187Z,99405.81
2022-09-24T08:20:02.837Z,99406.41
2022-09-24T08:22:31.674Z,99409.72
2022-09-24T08:25:00.484Z,99407.69
2022-09-24T08:27:29.410Z,99401.38
2022-09-24T08:29:57.989Z,99397.47
2022-09-24T08:32:26.148Z,99407.84
2022-09-24T08:34:55.631Z,99412.56
2022-09-24T08:37:23.768Z,99412.97
2022-09-24T08:39:51.966Z,99426.00
2022-09-24T08:42:29.903Z,99425.84
2022-09-24T08:45:17.262Z,99428.53
2022-09-24T08:47:49.590Z,99417.13
2022-09-24T08:50:20.983Z,99423.88
2022-09-24T08:53:04.705Z,99417.03
2022-09-24T08:55:36.657Z,99411.81
2022-09-24T08:58:26.621Z,99409.13
2022-09-24T09:00:58.933Z,99416.31
2022-09-24T09:03:33.634Z,99416.88
2022-09-24T09:06:04.804Z,99428.59
2022-09-24T09:09:05.558Z,99421.91
2022-09-24T09:11:34.792Z,99422.38
2022-09-24T09:14:07.697Z,99421.03
2022-09-24T09:16:44.248Z,99417.34
2022-09-24T09:19:15.293Z,99417.38
2022-09-24T09:21:52.774Z,99421.19
2022-09-24T09:24:24.297Z,99420.31
2022-09-24T09:26:56.216Z,99415.97
2022-09-24T09:29:26.077Z,99417.53
2022-09-24T09:32:05.320Z,99417.25
2022-09-24T09:34:53.636Z,99410.56
2022-09-24T09:37:29.259Z,99416.09
2022-09-24T09:40:10.095Z,99409.81
2022-09-24T09:42:40.633Z,99412.56
2022-09-24T09:45:26.921Z,99410.53
2022-09-24T09:47:57.784Z,99411.97
2022-09-24T09:50:29.165Z,99408.03
2022-09-24T09:53:03.694Z,99406.13
2022-09-24T09:55:35.913Z,99396.44
2022-09-24T09:58:12.773Z,99402.16
2022-09-24T10:00:42.161Z,99397.25
2022-09-24T10:03:24.216Z,99390.34
2022-09-24T10:05:59.678Z,99389.19
2022-09-24T10:08:30.550Z,99383.81
2022-09-24T10:11:08.017Z,99378.91
2022-09-24T10:13:37.249Z,99377.44
2022-09-24T10:16:06.768Z,99374.72
2022-09-24T10:18:37.924Z,99373.84
2022-09-24T10:21:12.139Z,99373.22
2022-09-24T10:23:44.568Z,99370.28
2022-09-24T10:26:12.920Z,99366.75
2022-09-24T10:29:05.211Z,99371.06
2022-09-24T10:31:36.618Z,99375.69
2022-09-24T10:34:07.176Z,99380.03
2022-09-24T10:36:36.425Z,99371.38
2022-09-24T10:39:13.986Z,99376.31
2022-09-24T10:41:47.790Z,99372.53
2022-09-24T10:44:21.104Z,99384.50
2022-09-24T10:47:19.010Z,99370.59
2022-09-24T10:49:55.785Z,99375.53
2022-09-24T10:52:37.607Z,99378.31
2022-09-24T10:55:16.700Z,99364.78
2022-09-24T10:57:53.278Z,99365.81
2022-09-24T11:00:22.902Z,99369.75
2022-09-24T11:03:25.741Z,99372.66
2022-09-24T11:05:55.489Z,99368.16
2022-09-24T11:08:48.802Z,99356.31
2022-09-24T11:11:31.389Z,99355.22
2022-09-24T11:14:10.100Z,99352.78
2022-09-24T11:17:15.854Z,99361.81
2022-09-24T11:19:55.618Z,99353.50
2022-09-24T11:22:30.856Z,99360.19
2022-09-24T11:25:18.215Z,99359.97
2022-09-24T11:27:53.866Z,99360.59
2022-09-24T11:30:24.959Z,99361.19
2022-09-24T11:33:04.509Z,99359.22
2022-09-24T11:35:56.674Z,99343.31
2022-09-24T11:38:34.284Z,99349.44
2022-09-24T11:41:12.731Z,99358.09
2022-09-24T11:43:55.090Z,99352.19
2022-09-24T11:46:36.658Z,99348.75
2022-09-24T11:49:29.597Z,99344.97
2022-09-24T11:52:03.149Z,99344.56
2022-09-24T11:54:34.756Z,99342.53
2022-09-24T11:57:05.672Z,99335.91
2022-09-24T11:59:39.882Z,99329.13
2022-09-24T12:02:17.086Z,99332.03
2022-09-24T12:04:56.127Z,99341.25
2022-09-24T12:07:28.843Z,99334.19
2022-09-24T12:10:00.739Z,99330.09
2022-09-24T12:12:31.053Z,99330.72
2022-09-24T12:15:03.248Z,99333.56
2022-09-24T12:17:36.937Z,99334.59
2022-09-24T12:20:08.289Z,99331.13
2022-09-24T12:22:38.730Z,99326.56
2022-09-24T12:25:12.559Z,99339.41
2022-09-24T12:27:40.910Z,99334.56
2022-09-24T12:30:40.705Z,99330.03
2022-09-24T12:33:12.650Z,99326.19
2022-09-24T12:35:59.004Z,99320.88
2022-09-24T12:38:31.349Z,99310.88
2022-09-24T12:41:23.271Z,99308.59
2022-09-24T12:43:54.358Z,99316.78
2022-09-24T12:46:26.939Z,99305.94
2022-09-24T12:48:55.765Z,99309.97
2022-09-24T12:51:24.253Z,99307.59
2022-09-24T12:54:07.591Z,99289.16
2022-09-24T12:56:35.889Z,99301.03
2022-09-24T12:59:05.729Z,99305.78
2022-09-24T13:01:35.860Z,99302.00
2022-09-24T13:04:08.235Z,99303.31
2022-09-24T13:06:38.199Z,99302.31
2022-09-24T13:09:26.330Z,99299.22
2022-09-24T13:12:03.873Z,99300.81
2022-09-24T13:14:32.688Z,99290.41
2022-09-24T13:17:06.809Z,99292.31
2022-09-24T13:19:37.420Z,99285.00
2022-09-24T13:22:06.149Z,99280.78
2022-09-24T13:24:46.789Z,99281.72
2022-09-24T13:27:26.827Z,99279.22
2022-09-24T13:30:05.542Z,99276.38
2022-09-24T13:32:38.316Z,99266.81
2022-09-24T13:35:11.253Z,99271.00
2022-09-24T13:37:42.747Z,99262.47
2022-09-24T13:40:18.092Z,99262.06
2022-09-24T13:42:49.099Z,99270.69
2022-09-24T13:45:19.639Z,99263.38
2022-09-24T13:47:51.131Z,99250.56
2022-09-24T13:50:20.993Z,99248.84
2022-09-24T13:52:52.927Z,99251.34
2022-09-24T13:55:24.189Z,99248.13
2022-09-24T13:57:52.651Z,99252.88
2022-09-24T14:00:26.291Z,99255.56
2022-09-24T14:03:02.519Z,99255.28
2022-09-24T14:05:31.945Z,99251.53
2022-09-24T14:08:04.733Z,99260.06
2022-09-24T14:10:33.181Z,99247.94
2022-09-24T14:13:03.213Z,99242.28
2022-09-24T14:15:31.369Z,99249.53
2022-09-24T14:18:01.202Z,99240.41
2022-09-24T14:20:31.538Z,99250.56
2022-09-24T14:22:59.830Z,99239.53
2022-09-24T14:25:30.069Z,99242.16
2022-09-24T14:28:00.461Z,99237.44
2022-09-24T14:30:30.512Z,99232.44
2022-09-24T14:33:01.466Z,99236.13
2022-09-24T14:35:32.122Z,99222.84
2022-09-24T14:38:04.416Z,99227.59
2022-09-24T14:40:40.626Z,99236.28
2022-09-24T14:43:17.689Z,99237.94
2022-09-24T14:45:47.074Z,99243.31
2022-09-24T14:48:24.831Z,99243.31
2022-09-24T14:50:52.958Z,99241.00
2022-09-24T14:53:23.812Z,99232.50
2022-09-24T14:55:52.516Z,99233.13
2022-09-24T14:58:25.515Z,99237.50
2022-09-24T15:00:56.311Z,99223.19
2022-09-24T15:03:30.051Z,99233.78
2022-09-24T15:06:06.073Z,99229.59
2022-09-24T15:08:34.358Z,99222.91
2022-09-24T15:11:04.809Z,99222.09
2022-09-24T15:13:35.341Z,99228.69
2022-09-24T15:16:09.355Z,99225.81
2022-09-24T15:18:38.906Z,99230.19
2022-09-24T15:21:11.089Z,99236.19
2022-09-24T15:23:39.266Z,99229.91
2022-09-24T15:26:07.988Z,99232.22
2022-09-24T15:28:35.970Z,99233.28
2022-09-24T15:31:04.081Z,99228.63
2022-09-24T15:33:32.085Z,99232.63
2022-09-24T15:36:01.559Z,99230.47
2022-09-24T15:38:29.745Z,99226.88
2022-09-24T15:40:59.445Z,99221.03
2022-09-24T15:43:27.801Z,99222.44
2022-09-24T15:45:55.999Z,99220.78
2022-09-24T15:48:24.152Z,99225.13
2022-09-24T15:50:52.432Z,99217.38
2022-09-24T15:53:24.029Z,99214.94
2022-09-24T15:55:54.421Z,99212.81
2022-09-24T15:58:23.023Z,99219.63
2022-09-24T16:00:52.842Z,99215.25
2022-09-24T16:03:23.771Z,99209.22
2022-09-24T16:05:52.182Z,99216.03
2022-09-24T16:08:21.779Z,99211.44
2022-09-24T16:10:50.162Z,99213.31
2022-09-24T16:13:19.088Z,99211.63
2022-09-24T16:15:47.748Z,99204.06
2022-09-24T16:18:17.781Z,99213.56
2022-09-24T16:20:47.542Z,99217.00
2022-09-24T16:23:16.713Z,99224.06
2022-09-24T16:25:56.973Z,99214.88
2022-09-24T16:28:26.289Z,99222.78
2022-09-24T16:30:54.886Z,99222.13
2022-09-24T16:33:23.544Z,99216.28
2022-09-24T16:35:51.922Z,99221.03
2022-09-24T16:38:22.921Z,99226.31
2022-09-24T16:40:52.305Z,99231.44
2022-09-24T16:43:21.907Z,99219.56
2022-09-24T16:45:50.169Z,99225.22
2022-09-24T16:48:18.482Z,99221.97
2022-09-24T16:50:49.588Z,99227.38
2022-09-24T16:53:17.701Z,99229.22
2022-09-24T16:55:45.862Z,99225.06
2022-09-24T16:58:13.913Z,99230.63
2022-09-24T17:00:43.994Z,99223.56
2022-09-24T17:03:12.548Z,99236.00
2022-09-24T17:05:41.291Z,99224.88
2022-09-24T17:08:09.499Z,99236.00
2022-09-24T17:10:40.200Z,99238.31
2022-09-24T17:13:10.890Z,99239.03
2022-09-24T17:15:39.101Z,99245.25
2022-09-24T17:18:08.636Z,99238.38
2022-09-24T17:20:37.066Z,99234.88
2022-09-24T17:23:05.675Z,99240.34
2022-09-24T17:25:33.820Z,99232.44
2022-09-24T17:28:04.110Z,99234.13
2022-09-24T17:30:33.004Z,99237.75
2022-09-24T17:33:01.183Z,99238.13
2022-09-24T17:35:30.723Z,99243.69
2022-09-24T17:37:58.925Z,99234.22
2022-09-24T17:40:27.502Z,99231.16
2022-09-24T17:42:55.786Z,99228.66
2022-09-24T17:45:23.959Z,99229.19
2022-09-24T17:47:57.846Z,99225.94
2022-09-24T17:50:26.156Z,99226.50
2022-09-24T17:52:55.728Z,99225.88
2022-09-24T17:55:23.816Z,99234.31
2022-09-24T17:57:51.948Z,99230.97
2022-09-24T18:00:20.228Z,99224.56
2022-09-24T18:02:48.450Z,99227.06
2022-09-24T18:05:16.855Z,99233.00
2022-09-24T18:07:45.403Z,99238.38
2022-09-24T18:10:17.314Z,99225.28
2022-09-24T18:12:45.553Z,99238.28
2022-09-24T18:15:13.727Z,99229.47
2022-09-24T18:17:41.909Z,99236.16
2022-09-24T18:20:10.321Z,99236.16
2022-09-24T18:22:38.691Z,99236.41
2022-09-24T18:25:07.899Z,99233.09
2022-09-24T18:27:38.619Z,99228.16
2022-09-24T18:30:11.271Z,99233.44
2022-09-24T18:32:40.255Z,99227.41
2022-09-24T18:35:09.600Z,99226.56
2022-09-24T18:37:37.831Z,99225.25
2022-09-24T18:40:07.078Z,99231.66
2022-09-24T18:42:35.342Z,99224.63
2022-09-24T18:45:06.147Z,99221.53
2022-09-24T18:47:38.301Z,99223.41
2022-09-24T18:50:07.615Z,99226.28
2022-09-24T18:52:35.890Z,99225.44
2022-09-24T18:55:04.086Z,99227.31
2022-09-24T18:57:32.568Z,99231.09
2022-09-24T19:00:00.772Z,99224.03
2022-09-24T19:02:31.241Z,99226.06
2022-09-24T19:04:59.578Z,99225.22
2022-09-24T19:07:27.710Z,99224.19
2022-09-24T19:09:55.992Z,99224.75
2022-09-24T19:12:24.131Z,99221.97
2022-09-24T19:14:54.424Z,99221.31
2022-09-24T19:17:22.590Z,99225.13
2022-09-24T19:19:52.660Z,99222.31
2022-09-24T19:22:21.056Z,99221.75
2022-09-24T19:24:49.661Z,99224.25
2022-09-24T19:27:17.820Z,99214.50
2022-09-24T19:29:46.190Z,99219.06
2022-09-24T19:32:14.506Z,99220.59
2022-09-24T19:34:42.702Z,99222.78
2022-09-24T19:37:12.131Z,99212.38
2022-09-24T19:39:40.374Z,99215.75
2022-09-24T19:42:08.528Z,99215.56
2022-09-24T19:44:36.712Z,99210.06
2022-09-24T19:47:05.121Z,99218.44
2022-09-24T19:49:33.260Z,99212.25
2022-09-24T19:52:01.443Z,99213.28
2022-09-24T19:54:31.361Z,99216.88
2022-09-24T19:56:59.538Z,99211.22
2022-09-24T19:59:27.616Z,99212.88
2022-09-24T20:01:55.874Z,99211.38
2022-09-24T20:04:24.704Z,99215.06
2022-09-24T20:06:54.274Z,99219.97
2022-09-24T20:09:22.359Z,99219.56
2022-09-24T20:11:51.855Z,99219.72
2022-09-24T20:14:21.442Z,99222.41
2022-09-24T20:16:49.796Z,99222.09
2022-09-24T20:19:20.301Z,99230.16
2022-09-24T20:21:48.503Z,99232.16
2022-09-24T20:24:16.984Z,99233.06
2022-09-24T20:27:02.471Z,99237.09
2022-09-24T20:29:32.071Z,99237.28
2022-09-24T20:32:00.277Z,99247.03
2022-09-24T20:34:33.710Z,99237.63
2022-09-24T20:37:02.536Z,99233.59
2022-09-24T20:39:30.920Z,99233.59
2022-09-24T20:42:01.749Z,99233.19
2022-09-24T20:44:31.695Z,99231.72
2022-09-24T20:46:59.947Z,99225.91
2022-09-24T20:49:28.261Z,99231.16
2022-09-24T20:51:57.982Z,99231.13
2022-09-24T20:54:28.247Z,99222.88
2022-09-24T20:56:56.723Z,99222.34
2022-09-24T20:59:25.687Z,99222.63
2022-09-24T21:01:55.700Z,99217.75
2022-09-24T21:04:24.590Z,99210.09
2022-09-24T21:06:52.721Z,99213.09
2022-09-24T21:09:21.033Z,99211.44
2022-09-24T21:11:50.196Z,99205.91
2022-09-24T21:14:18.697Z,99211.63
2022-09-24T21:16:47.521Z,99219.06
2022-09-24T21:19:17.162Z,99215.19
2022-09-24T21:21:45.413Z,99214.66
2022-09-24T21:24:15.248Z,99227.13
2022-09-24T21:26:45.037Z,99220.97
2022-09-24T21:29:15.490Z,99222.44
2022-09-24T21:31:46.108Z,99224.97
2022-09-24T21:34:16.831Z,99219.31
2022-09-24T21:36:46.684Z,99221.84
2022-09-24T21:39:17.099Z,99227.56
2022-09-24T21:41:48.243Z,99226.44
2022-09-24T21:44:17.606Z,99229.41
2022-09-24T21:46:46.235Z,99222.81
2022-09-24T21:49:17.362Z,99222.38
2022-09-24T21:51:45.898Z,99227.34
2022-09-24T21:54:17.509Z,99217.31
2022-09-24T21:56:46.339Z,99220.00
2022-09-24T21:59:32.056Z,99219.13
2022-09-24T22:02:00.352Z,99218.41
2022-09-24T22:04:32.261Z,99216.56
2022-09-24T22:07:00.662Z,99225.50
2022-09-24T22:09:29.184Z,99214.47
2022-09-24T22:11:57.877Z,99218.66
2022-09-24T22:14:26.189Z,99215.16
2022-09-24T22:16:55.438Z,99212.56
2022-09-24T22:19:23.993Z,99209.91
2022-09-24T22:21:53.798Z,99213.75
2022-09-24T22:24:22.170Z,99207.41
2022-09-24T22:26:50.349Z,99210.41
2022-09-24T22:29:18.624Z,99204.31
2022-09-24T22:31:46.848Z,99207.97
2022-09-24T22:34:32.420Z,99206.16
2022-09-24T22:37:05.990Z,99203.25
2022-09-24T22:39:35.015Z,99187.22
2022-09-24T22:42:03.255Z,99183.94
2022-09-24T22:44:31.559Z,99170.34
2022-09-24T22:46:59.571Z,99177.94
2022-09-24T22:49:27.702Z,99187.34
2022-09-24T22:51:55.860Z,99192.56
2022-09-24T22:54:25.475Z,99196.75
2022-09-24T22:56:53.678Z,99200.63
2022-09-24T22:59:21.818Z,99216.13
2022-09-24T23:01:50.005Z,99204.72
2022-09-24T23:04:18.300Z,99218.63
2022-09-24T23:06:46.335Z,99215.44
2022-09-24T23:09:14.607Z,99210.75
2022-09-24T23:11:44.055Z,99217.66
2022-09-24T23:14:13.978Z,99212.94
2022-09-24T23:16:43.791Z,99209.53
2022-09-24T23:19:14.696Z,99210.00
2022-09-24T23:21:42.946Z,99212.59
2022-09-24T23:24:15.374Z,99201.06
2022-09-24T23:26:45.037Z,99201.56
2022-09-24T23:29:14.250Z,99205.41
2022-09-24T23:31:42.941Z,99203.91
2022-09-24T23:34:13.159Z,99208.09
2022-09-24T23:36:41.485Z,99205.41
2022-09-24T23:39:09.644Z,99200.09
2022-09-24T23:41:37.975Z,99208.44
2022-09-24T23:44:07.695Z,99210.78
2022-09-24T23:46:35.839Z,99207.13
2022-09-24T23:49:04.332Z,99210.16
2022-09-24T23:51:32.508Z,99201.75
2022-09-24T23:54:00.841Z,99202.63
2022-09-24T23:56:29.269Z,99201.25
2022-09-24T23:58:57.732Z,99202.88
